Airport View

Enter AWOS ICAO identifier for current METAR.

ex. KFNL

KLLJ 030755Z AUTO 14003KT 10SM CLR 10/M01 A3009 RMK AO2 SLP139 T01001006

3 Jul 2020 17:54

Frequency: 119.275

Phone: 208-879-5121

Other Area AWOS: KSNT - KSMN - KSUN - KMYL

TAF KSMN 031148Z 0312/0412 00000KT P6SM SKC FM032100 24010KT P6SM VCSH BKN150